createdAt,value
2017-09-06T00:01:46.226Z,1.20
2017-09-06T00:04:18.989Z,1.30
2017-09-06T00:06:52.620Z,1.30
2017-09-06T00:09:30.604Z,1.47
2017-09-06T00:11:58.440Z,1.40
2017-09-06T00:14:26.023Z,1.03
2017-09-06T00:16:56.303Z,0.93
2017-09-06T00:19:39.267Z,1.10
2017-09-06T00:22:06.888Z,1.30
2017-09-06T00:24:34.512Z,1.30
2017-09-06T00:27:02.103Z,1.23
2017-09-06T00:29:29.674Z,1.10
2017-09-06T00:31:57.297Z,1.00
2017-09-06T00:34:24.873Z,1.43
2017-09-06T00:36:52.406Z,1.10
2017-09-06T00:39:20.011Z,0.90
2017-09-06T00:41:47.563Z,0.97
2017-09-06T00:44:15.134Z,1.50
2017-09-06T00:46:42.759Z,1.17
2017-09-06T00:49:10.352Z,1.03
2017-09-06T00:51:37.927Z,0.90
2017-09-06T00:56:39.334Z,1.10
2017-09-06T00:59:06.954Z,1.00
2017-09-06T01:01:34.502Z,1.03
2017-09-06T01:04:02.108Z,0.97
2017-09-06T01:06:29.682Z,1.00
2017-09-06T01:08:57.299Z,1.13
2017-09-06T01:24:15.019Z,1.00
2017-09-06T01:26:42.541Z,1.10
2017-09-06T01:29:10.120Z,1.00
2017-09-06T01:31:37.627Z,0.90
2017-09-06T01:34:05.146Z,0.97
2017-09-06T01:36:32.958Z,0.90
2017-09-06T01:39:01.385Z,1.23
2017-09-06T01:41:28.962Z,0.70
2017-09-06T01:43:56.581Z,0.80
2017-09-06T01:46:24.117Z,0.97
2017-09-06T01:48:51.695Z,1.10
2017-09-06T01:51:19.230Z,0.83
2017-09-06T01:53:46.782Z,1.03
2017-09-06T01:56:14.309Z,0.87
2017-09-06T01:58:41.881Z,1.00
2017-09-06T02:01:09.463Z,1.00
2017-09-06T02:03:37.027Z,0.83
2017-09-06T02:06:04.529Z,0.83
2017-09-06T02:08:32.105Z,1.13
2017-09-06T02:11:00.027Z,1.17
2017-09-06T02:16:02.864Z,0.70
2017-09-06T02:18:30.409Z,1.00
2017-09-06T02:20:57.971Z,0.97
2017-09-06T02:23:25.526Z,1.17
2017-09-06T02:25:53.158Z,0.80
2017-09-06T02:28:20.678Z,1.17
2017-09-06T02:30:48.202Z,1.00
2017-09-06T02:33:15.778Z,0.97
2017-09-06T02:35:43.332Z,0.97
2017-09-06T02:38:10.952Z,0.80
2017-09-06T02:40:38.507Z,1.40
2017-09-06T02:43:06.047Z,1.00
2017-09-06T02:45:33.556Z,1.53
2017-09-06T02:48:01.130Z,1.40
2017-09-06T02:50:28.652Z,1.20
2017-09-06T02:52:56.255Z,1.40
2017-09-06T02:55:23.924Z,0.90
2017-09-06T02:57:51.451Z,0.80
2017-09-06T03:00:19.028Z,1.23
2017-09-06T03:02:46.563Z,1.03
2017-09-06T03:05:14.171Z,0.93
2017-09-06T03:07:41.925Z,0.90
2017-09-06T03:12:45.656Z,1.20
2017-09-06T03:15:13.248Z,0.77
2017-09-06T03:17:40.894Z,1.00
2017-09-06T03:20:08.451Z,1.10
2017-09-06T03:22:36.029Z,1.00
2017-09-06T03:25:03.627Z,1.07
2017-09-06T03:27:31.288Z,0.97
2017-09-06T03:29:58.870Z,0.63
2017-09-06T03:32:26.409Z,0.70
2017-09-06T03:34:53.987Z,0.80
2017-09-06T03:37:21.647Z,0.83
2017-09-06T03:39:49.256Z,0.80
2017-09-06T03:42:16.887Z,0.70
2017-09-06T03:47:20.258Z,1.00
2017-09-06T03:49:47.882Z,1.00
2017-09-06T03:52:15.498Z,1.10
2017-09-06T03:54:43.075Z,1.33
2017-09-06T03:57:10.775Z,1.10
2017-09-06T03:59:38.371Z,0.90
2017-09-06T04:02:05.941Z,1.00
2017-09-06T04:04:33.572Z,0.80
2017-09-06T04:07:01.168Z,0.73
2017-09-06T04:09:28.735Z,0.90
2017-09-06T04:11:56.293Z,1.00
2017-09-06T04:14:23.883Z,1.10
2017-09-06T04:16:51.467Z,0.83
2017-09-06T04:19:19.113Z,1.40
2017-09-06T04:21:46.643Z,1.10
2017-09-06T04:24:14.329Z,0.90
2017-09-06T04:26:41.921Z,1.10
2017-09-06T04:29:09.566Z,0.80
2017-09-06T04:31:37.155Z,0.90
2017-09-06T04:34:04.711Z,1.27
2017-09-06T04:36:32.282Z,1.00
2017-09-06T04:38:59.818Z,0.90
2017-09-06T04:41:27.406Z,1.10
2017-09-06T04:43:54.958Z,1.13
2017-09-06T04:46:22.748Z,1.03
2017-09-06T04:48:50.287Z,0.97
2017-09-06T04:51:17.821Z,0.97
2017-09-06T04:56:20.821Z,0.90
2017-09-06T04:58:48.325Z,1.03
2017-09-06T05:03:49.638Z,0.90
2017-09-06T05:06:17.226Z,0.90
2017-09-06T05:08:44.756Z,1.20
2017-09-06T05:11:12.293Z,1.00
2017-09-06T05:13:39.847Z,1.23
2017-09-06T05:16:07.358Z,1.00
2017-09-06T05:18:34.999Z,0.90
2017-09-06T05:21:02.527Z,0.87
2017-09-06T05:23:32.231Z,0.77
2017-09-06T05:25:59.834Z,1.50
2017-09-06T05:31:01.226Z,0.97
2017-09-06T05:33:28.867Z,1.30
2017-09-06T05:35:56.417Z,1.10
2017-09-06T05:38:23.940Z,1.40
2017-09-06T05:40:51.495Z,1.70
2017-09-06T05:43:19.057Z,1.23
2017-09-06T05:45:46.638Z,1.53
2017-09-06T05:48:14.212Z,1.50
2017-09-06T05:50:41.747Z,1.27
2017-09-06T05:53:09.688Z,0.90
2017-09-06T05:55:37.221Z,1.33
2017-09-06T05:58:04.846Z,1.40
2017-09-06T06:00:32.415Z,1.50
2017-09-06T06:02:59.996Z,1.30
2017-09-06T06:05:27.573Z,1.70
2017-09-06T06:07:55.083Z,1.30
2017-09-06T06:10:22.670Z,1.30
2017-09-06T06:12:52.256Z,1.30
2017-09-06T06:15:19.893Z,1.23
2017-09-06T06:17:47.450Z,1.73
2017-09-06T06:20:15.142Z,1.43
2017-09-06T06:22:42.805Z,1.37
2017-09-06T06:25:10.537Z,1.33
2017-09-06T06:27:38.109Z,1.60
2017-09-06T06:30:05.823Z,1.60
2017-09-06T06:32:35.549Z,1.30
2017-09-06T06:35:06.407Z,1.27
2017-09-06T06:37:34.074Z,1.60
2017-09-06T06:40:01.698Z,1.63
2017-09-06T06:42:29.265Z,1.53
2017-09-06T06:44:56.859Z,1.17
2017-09-06T06:47:24.464Z,1.50
2017-09-06T06:49:52.039Z,1.57
2017-09-06T06:52:19.635Z,1.50
2017-09-06T06:54:47.242Z,1.90
2017-09-06T06:57:14.798Z,1.70
2017-09-06T06:59:42.402Z,1.67
2017-09-06T07:02:09.947Z,1.80
2017-09-06T07:04:37.563Z,1.63
2017-09-06T07:07:05.195Z,1.60
2017-09-06T07:09:32.826Z,2.00
2017-09-06T07:12:00.402Z,1.73
2017-09-06T07:14:27.990Z,1.60
2017-09-06T07:16:55.534Z,2.03
2017-09-06T07:19:23.204Z,1.87
2017-09-06T07:24:55.104Z,1.90
2017-09-06T07:36:46.459Z,1.40
2017-09-06T07:39:14.129Z,2.07
2017-09-06T07:41:41.790Z,2.53
2017-09-06T07:44:09.361Z,2.43
2017-09-06T07:46:36.972Z,2.27
2017-09-06T07:49:04.646Z,1.97
2017-09-06T07:51:32.316Z,2.50
2017-09-06T07:53:59.870Z,2.77
2017-09-06T08:18:13.792Z,2.40
2017-09-06T08:20:41.390Z,1.97
2017-09-06T08:23:09.064Z,2.83
2017-09-06T08:25:45.150Z,2.70
2017-09-06T08:31:13.561Z,2.63
2017-09-06T08:43:30.607Z,2.03
2017-09-06T08:45:58.283Z,1.90
2017-09-06T08:48:25.931Z,2.00
2017-09-06T08:50:53.637Z,2.10
2017-09-06T08:53:22.146Z,2.10
2017-09-06T09:16:33.699Z,2.57
2017-09-06T09:19:41.135Z,2.27
2017-09-06T09:34:49.164Z,2.07
2017-09-06T09:48:31.415Z,1.77
2017-09-06T09:59:07.878Z,1.67
2017-09-06T10:04:23.973Z,1.97
2017-09-06T10:12:27.727Z,1.80
2017-09-06T10:28:15.313Z,1.60
2017-09-06T10:39:01.497Z,1.27
2017-09-06T11:58:28.035Z,2.20
2017-09-06T12:30:20.154Z,1.17
2017-09-06T12:32:51.336Z,1.23
2017-09-06T12:38:05.167Z,1.10
2017-09-06T13:31:05.778Z,1.50
2017-09-06T14:22:09.372Z,1.60
2017-09-06T14:24:37.123Z,1.43
2017-09-06T14:27:05.358Z,1.30
2017-09-06T14:32:10.119Z,1.60
2017-09-06T15:16:02.011Z,1.63
2017-09-06T15:18:29.730Z,1.30
2017-09-06T15:20:57.354Z,1.33
2017-09-06T15:23:25.068Z,2.40
2017-09-06T15:25:52.627Z,1.70
2017-09-06T15:28:20.327Z,1.43
2017-09-06T15:30:47.978Z,2.20
2017-09-06T15:33:15.528Z,1.43
2017-09-06T15:35:43.266Z,1.50
2017-09-06T15:38:10.946Z,2.10
2017-09-06T15:40:38.576Z,1.83
2017-09-06T15:43:06.222Z,1.83
2017-09-06T15:45:33.850Z,1.80
2017-09-06T15:48:01.492Z,2.00
2017-09-06T15:50:29.155Z,1.80
2017-09-06T15:52:56.794Z,1.70
2017-09-06T15:55:25.256Z,2.07
2017-09-06T15:57:52.807Z,1.93
2017-09-06T16:00:20.446Z,1.60
2017-09-06T16:23:12.275Z,1.60
2017-09-06T16:36:03.959Z,1.97
2017-09-06T16:38:32.124Z,2.10
2017-09-06T16:41:08.855Z,2.13
2017-09-06T16:43:44.809Z,2.57
2017-09-06T16:48:59.450Z,1.93
2017-09-06T16:56:35.704Z,2.17
2017-09-06T17:01:39.148Z,2.10
2017-09-06T17:04:10.458Z,2.50
2017-09-06T17:06:45.716Z,2.37
2017-09-06T17:11:51.172Z,1.67
2017-09-06T17:34:47.042Z,1.67
2017-09-06T17:37:14.701Z,2.60
2017-09-06T17:39:42.321Z,2.60
2017-09-06T17:42:16.823Z,2.13
2017-09-06T17:44:44.428Z,2.30
2017-09-06T17:47:12.274Z,2.37
2017-09-06T17:49:39.812Z,2.90
2017-09-06T17:52:07.385Z,1.90
2017-09-06T17:54:34.918Z,2.50
2017-09-06T17:57:02.434Z,1.90
2017-09-06T17:59:43.019Z,2.10
2017-09-06T18:07:25.592Z,3.00
2017-09-06T18:15:01.783Z,2.10
2017-09-06T18:20:08.357Z,2.83
2017-09-06T18:43:39.474Z,2.33
2017-09-06T18:48:45.557Z,2.67
2017-09-06T18:53:51.965Z,2.67
2017-09-06T19:01:33.406Z,2.90
2017-09-06T19:04:02.249Z,3.00
2017-09-06T19:21:53.972Z,3.10
2017-09-06T19:24:23.361Z,2.60
2017-09-06T19:34:41.236Z,3.10
2017-09-06T19:42:26.664Z,3.10
2017-09-06T19:45:01.409Z,2.50
2017-09-06T19:50:04.248Z,3.33
2017-09-06T20:07:17.027Z,3.10
2017-09-06T20:12:40.984Z,3.00
2017-09-06T20:17:48.754Z,4.07
2017-09-06T20:27:55.014Z,3.07
2017-09-06T20:30:22.732Z,3.33
2017-09-06T21:14:43.143Z,3.77
2017-09-06T21:17:11.009Z,3.80
2017-09-06T21:19:55.506Z,3.30
2017-09-06T21:22:23.336Z,3.70
2017-09-06T21:24:55.395Z,3.30
2017-09-06T21:35:06.516Z,4.17
2017-09-06T21:37:34.337Z,3.63
2017-09-06T21:40:01.915Z,3.43
2017-09-06T21:42:29.542Z,3.30
2017-09-06T21:44:57.183Z,3.60
2017-09-06T21:47:24.943Z,3.10
2017-09-06T21:49:52.762Z,3.53
2017-09-06T22:10:18.086Z,3.60
2017-09-06T22:12:45.758Z,3.73
2017-09-06T22:15:13.390Z,3.43
2017-09-06T22:17:41.251Z,4.20
2017-09-06T22:20:09.081Z,4.00
2017-09-06T22:30:13.870Z,4.17
2017-09-06T22:45:36.278Z,3.50
2017-09-06T22:50:39.504Z,4.00
2017-09-06T22:53:07.202Z,3.30
2017-09-06T22:55:34.858Z,4.30
2017-09-06T23:03:12.631Z,3.50
2017-09-06T23:05:40.456Z,4.10
2017-09-06T23:08:08.149Z,3.70
2017-09-06T23:10:35.974Z,3.37
2017-09-06T23:13:03.880Z,3.23
2017-09-06T23:15:31.480Z,3.27
2017-09-06T23:17:59.258Z,3.43
2017-09-06T23:28:13.962Z,4.17
2017-09-06T23:30:41.631Z,3.30
2017-09-06T23:40:52.877Z,3.10
2017-09-06T23:43:23.551Z,3.50
2017-09-06T23:56:08.749Z,3.13
2017-09-06T23:58:36.347Z,3.53
